Sylvan Dell, Pennsylvania
Current Conditions -  °F | °C
As of 2:54 PM on Wednesday 17 Dec 2014 (Local Time) from KIPT Reporting Station
Overcast Overcast  
Wind Chill: 35°   Ceiling: 5000
Heat Index: 42°   Visibility: 10mi
Dew Point: 32°   Wind: 15mph
Humidity: 67%   Direction: 260°W
Pressure: 29.91"   Gusts: NA
Location:  41.2285°N, 77.014°W
Report Text: KIPT 171954Z 26013KT 10SM FEW035 SCT042 OVC050 06/00 A2991 RMK AO2 RAB01E20 SLP133 P0000 T00560000
Loading
Personal Weather Stations






























Interactive Weather Map New forecast layout! Learn more

10-Day Weather Forecast

Advertisements
Track Severe Weather on mobile